sensor_id;sensor_type;location;lat;lon;timestamp;temperature;humidity
15413;DHT22;7805;49.554;7.632;2022-08-05T00:00:21;27.50;91.30
15413;DHT22;7805;49.554;7.632;2022-08-05T00:02:47;27.30;91.90
15413;DHT22;7805;49.554;7.632;2022-08-05T00:05:14;27.30;92.30
15413;DHT22;7805;49.554;7.632;2022-08-05T00:07:39;27.30;92.50
15413;DHT22;7805;49.554;7.632;2022-08-05T00:10:05;27.20;93.00
15413;DHT22;7805;49.554;7.632;2022-08-05T00:12:31;27.10;93.20
15413;DHT22;7805;49.554;7.632;2022-08-05T00:14:56;27.20;93.40
15413;DHT22;7805;49.554;7.632;2022-08-05T00:17:22;27.00;94.50
15413;DHT22;7805;49.554;7.632;2022-08-05T00:19:47;26.90;94.90
15413;DHT22;7805;49.554;7.632;2022-08-05T00:22:13;26.90;95.20
15413;DHT22;7805;49.554;7.632;2022-08-05T00:24:39;27.00;95.70
15413;DHT22;7805;49.554;7.632;2022-08-05T00:27:05;26.90;95.90
15413;DHT22;7805;49.554;7.632;2022-08-05T00:29:31;26.80;96.20
15413;DHT22;7805;49.554;7.632;2022-08-05T00:31:57;26.80;96.60
15413;DHT22;7805;49.554;7.632;2022-08-05T00:34:22;26.80;96.60
15413;DHT22;7805;49.554;7.632;2022-08-05T00:36:48;26.80;97.00
15413;DHT22;7805;49.554;7.632;2022-08-05T00:39:14;26.80;97.70
15413;DHT22;7805;49.554;7.632;2022-08-05T00:41:43;26.80;97.20
15413;DHT22;7805;49.554;7.632;2022-08-05T00:44:09;26.80;97.10
15413;DHT22;7805;49.554;7.632;2022-08-05T00:46:34;26.80;96.90
15413;DHT22;7805;49.554;7.632;2022-08-05T00:49:00;26.70;96.80
15413;DHT22;7805;49.554;7.632;2022-08-05T00:51:25;26.70;96.90
15413;DHT22;7805;49.554;7.632;2022-08-05T00:53:51;26.50;97.30
15413;DHT22;7805;49.554;7.632;2022-08-05T00:56:17;26.50;97.80
15413;DHT22;7805;49.554;7.632;2022-08-05T00:58:43;26.40;98.50
15413;DHT22;7805;49.554;7.632;2022-08-05T01:01:10;26.40;99.30
15413;DHT22;7805;49.554;7.632;2022-08-05T01:03:37;26.30;99.10
15413;DHT22;7805;49.554;7.632;2022-08-05T01:06:03;26.40;99.50
15413;DHT22;7805;49.554;7.632;2022-08-05T01:08:28;26.40;99.60
15413;DHT22;7805;49.554;7.632;2022-08-05T01:10:58;26.40;99.40
15413;DHT22;7805;49.554;7.632;2022-08-05T01:13:47;26.40;99.60
15413;DHT22;7805;49.554;7.632;2022-08-05T01:16:46;26.30;99.90
15413;DHT22;7805;49.554;7.632;2022-08-05T01:30:17;26.20;99.90
15413;DHT22;7805;49.554;7.632;2022-08-05T01:32:45;25.90;99.90
15413;DHT22;7805;49.554;7.632;2022-08-05T01:35:17;25.50;99.90
15413;DHT22;7805;49.554;7.632;2022-08-05T01:37:47;25.50;99.90
15413;DHT22;7805;49.554;7.632;2022-08-05T01:40:14;25.50;99.90
15413;DHT22;7805;49.554;7.632;2022-08-05T01:42:43;25.40;99.90
15413;DHT22;7805;49.554;7.632;2022-08-05T01:45:10;25.40;99.90
15413;DHT22;7805;49.554;7.632;2022-08-05T01:47:38;25.40;99.90
15413;DHT22;7805;49.554;7.632;2022-08-05T01:50:07;25.30;99.90
15413;DHT22;7805;49.554;7.632;2022-08-05T01:52:36;25.30;99.90
15413;DHT22;7805;49.554;7.632;2022-08-05T01:55:05;25.20;99.90
15413;DHT22;7805;49.554;7.632;2022-08-05T01:57:37;25.10;99.90
15413;DHT22;7805;49.554;7.632;2022-08-05T02:00:06;25.00;99.90
15413;DHT22;7805;49.554;7.632;2022-08-05T02:02:36;24.80;99.90
15413;DHT22;7805;49.554;7.632;2022-08-05T02:05:07;24.60;99.90
15413;DHT22;7805;49.554;7.632;2022-08-05T02:07:35;24.50;99.90
15413;DHT22;7805;49.554;7.632;2022-08-05T02:10:02;24.30;99.90
15413;DHT22;7805;49.554;7.632;2022-08-05T02:12:52;24.30;99.90
15413;DHT22;7805;49.554;7.632;2022-08-05T02:15:33;24.10;99.90
15413;DHT22;7805;49.554;7.632;2022-08-05T02:18:07;23.90;99.90
15413;DHT22;7805;49.554;7.632;2022-08-05T02:20:51;24.10;99.90
15413;DHT22;7805;49.554;7.632;2022-08-05T02:23:21;24.10;99.90
15413;DHT22;7805;49.554;7.632;2022-08-05T02:25:48;24.20;99.90
15413;DHT22;7805;49.554;7.632;2022-08-05T02:28:15;24.20;99.90
15413;DHT22;7805;49.554;7.632;2022-08-05T02:30:54;24.10;99.90
15413;DHT22;7805;49.554;7.632;2022-08-05T02:33:22;24.00;99.90
15413;DHT22;7805;49.554;7.632;2022-08-05T02:35:49;23.90;99.90
15413;DHT22;7805;49.554;7.632;2022-08-05T02:38:16;23.80;99.90
15413;DHT22;7805;49.554;7.632;2022-08-05T02:40:43;23.80;99.90
15413;DHT22;7805;49.554;7.632;2022-08-05T02:43:12;23.70;99.90
15413;DHT22;7805;49.554;7.632;2022-08-05T02:45:39;23.50;99.90
15413;DHT22;7805;49.554;7.632;2022-08-05T02:48:07;23.60;99.90
15413;DHT22;7805;49.554;7.632;2022-08-05T02:50:33;23.40;99.90
15413;DHT22;7805;49.554;7.632;2022-08-05T02:52:59;23.30;99.90
15413;DHT22;7805;49.554;7.632;2022-08-05T02:55:26;23.30;99.90
15413;DHT22;7805;49.554;7.632;2022-08-05T02:57:53;23.30;99.90
15413;DHT22;7805;49.554;7.632;2022-08-05T03:00:19;23.20;99.90
15413;DHT22;7805;49.554;7.632;2022-08-05T03:02:46;23.40;99.90
15413;DHT22;7805;49.554;7.632;2022-08-05T03:05:14;23.50;99.90
15413;DHT22;7805;49.554;7.632;2022-08-05T03:07:40;23.60;99.90
15413;DHT22;7805;49.554;7.632;2022-08-05T03:10:07;23.70;99.90
15413;DHT22;7805;49.554;7.632;2022-08-05T03:12:37;23.70;99.90
15413;DHT22;7805;49.554;7.632;2022-08-05T03:15:05;23.60;99.90
15413;DHT22;7805;49.554;7.632;2022-08-05T03:17:31;23.70;99.90
15413;DHT22;7805;49.554;7.632;2022-08-05T03:19:56;23.80;99.90
15413;DHT22;7805;49.554;7.632;2022-08-05T03:22:23;23.70;99.90
15413;DHT22;7805;49.554;7.632;2022-08-05T03:24:49;23.70;99.90
15413;DHT22;7805;49.554;7.632;2022-08-05T03:27:15;23.70;99.90
15413;DHT22;7805;49.554;7.632;2022-08-05T03:29:41;23.70;99.90
15413;DHT22;7805;49.554;7.632;2022-08-05T03:32:07;23.50;99.90
15413;DHT22;7805;49.554;7.632;2022-08-05T03:34:34;23.40;99.90
15413;DHT22;7805;49.554;7.632;2022-08-05T03:37:01;23.40;99.90
15413;DHT22;7805;49.554;7.632;2022-08-05T03:39:27;23.30;99.90
15413;DHT22;7805;49.554;7.632;2022-08-05T03:41:54;23.10;99.90
15413;DHT22;7805;49.554;7.632;2022-08-05T03:44:19;23.10;99.90
15413;DHT22;7805;49.554;7.632;2022-08-05T03:46:45;23.10;99.90
15413;DHT22;7805;49.554;7.632;2022-08-05T03:49:10;23.10;99.90
15413;DHT22;7805;49.554;7.632;2022-08-05T03:51:59;23.10;99.90
15413;DHT22;7805;49.554;7.632;2022-08-05T03:56:54;23.20;99.90
15413;DHT22;7805;49.554;7.632;2022-08-05T03:59:31;23.10;99.90
15413;DHT22;7805;49.554;7.632;2022-08-05T04:01:59;23.20;99.90
15413;DHT22;7805;49.554;7.632;2022-08-05T04:04:26;23.20;99.90
15413;DHT22;7805;49.554;7.632;2022-08-05T04:06:52;23.40;99.90
15413;DHT22;7805;49.554;7.632;2022-08-05T04:09:18;23.40;99.90
15413;DHT22;7805;49.554;7.632;2022-08-05T04:11:44;23.50;99.90
15413;DHT22;7805;49.554;7.632;2022-08-05T04:14:10;23.50;99.90
15413;DHT22;7805;49.554;7.632;2022-08-05T04:16:36;23.70;99.90
15413;DHT22;7805;49.554;7.632;2022-08-05T04:19:03;23.60;99.90
15413;DHT22;7805;49.554;7.632;2022-08-05T04:21:29;23.60;99.90
15413;DHT22;7805;49.554;7.632;2022-08-05T04:23:55;23.50;99.90
15413;DHT22;7805;49.554;7.632;2022-08-05T04:26:23;23.50;99.90
15413;DHT22;7805;49.554;7.632;2022-08-05T04:28:49;23.40;99.90
15413;DHT22;7805;49.554;7.632;2022-08-05T04:31:14;23.40;99.90
15413;DHT22;7805;49.554;7.632;2022-08-05T04:33:40;23.30;99.90
15413;DHT22;7805;49.554;7.632;2022-08-05T04:36:06;23.30;99.90
15413;DHT22;7805;49.554;7.632;2022-08-05T04:38:32;23.00;99.90
15413;DHT22;7805;49.554;7.632;2022-08-05T04:40:58;22.80;99.90
15413;DHT22;7805;49.554;7.632;2022-08-05T04:43:23;22.90;99.90
15413;DHT22;7805;49.554;7.632;2022-08-05T04:45:49;23.00;99.90
15413;DHT22;7805;49.554;7.632;2022-08-05T04:48:15;23.00;99.90
15413;DHT22;7805;49.554;7.632;2022-08-05T04:50:44;23.00;99.90
15413;DHT22;7805;49.554;7.632;2022-08-05T04:53:11;23.00;99.90
15413;DHT22;7805;49.554;7.632;2022-08-05T04:55:38;23.00;99.90
15413;DHT22;7805;49.554;7.632;2022-08-05T04:58:07;22.90;99.90
15413;DHT22;7805;49.554;7.632;2022-08-05T05:00:34;22.90;99.90
15413;DHT22;7805;49.554;7.632;2022-08-05T05:03:00;23.00;99.90
15413;DHT22;7805;49.554;7.632;2022-08-05T05:05:26;23.00;99.90
15413;DHT22;7805;49.554;7.632;2022-08-05T05:07:53;23.00;99.90
15413;DHT22;7805;49.554;7.632;2022-08-05T05:10:19;22.80;99.90
15413;DHT22;7805;49.554;7.632;2022-08-05T05:12:45;22.60;99.90
15413;DHT22;7805;49.554;7.632;2022-08-05T05:15:10;22.70;99.90
15413;DHT22;7805;49.554;7.632;2022-08-05T05:17:40;22.80;99.90
15413;DHT22;7805;49.554;7.632;2022-08-05T05:20:08;22.90;99.90
15413;DHT22;7805;49.554;7.632;2022-08-05T05:22:34;22.90;99.90
15413;DHT22;7805;49.554;7.632;2022-08-05T05:25:00;23.00;99.90
15413;DHT22;7805;49.554;7.632;2022-08-05T05:27:27;23.10;99.90
15413;DHT22;7805;49.554;7.632;2022-08-05T05:29:53;23.20;99.90
15413;DHT22;7805;49.554;7.632;2022-08-05T05:32:19;23.20;99.90
15413;DHT22;7805;49.554;7.632;2022-08-05T05:34:44;23.10;99.90
15413;DHT22;7805;49.554;7.632;2022-08-05T05:37:11;23.20;99.90
15413;DHT22;7805;49.554;7.632;2022-08-05T05:39:37;23.20;99.90
15413;DHT22;7805;49.554;7.632;2022-08-05T05:42:03;23.20;99.90
15413;DHT22;7805;49.554;7.632;2022-08-05T05:44:28;23.20;99.90
15413;DHT22;7805;49.554;7.632;2022-08-05T05:46:54;23.30;99.90
15413;DHT22;7805;49.554;7.632;2022-08-05T05:49:19;23.30;99.90
15413;DHT22;7805;49.554;7.632;2022-08-05T05:51:45;23.10;99.90
15413;DHT22;7805;49.554;7.632;2022-08-05T05:54:10;23.10;99.90
15413;DHT22;7805;49.554;7.632;2022-08-05T05:56:36;22.90;99.90
15413;DHT22;7805;49.554;7.632;2022-08-05T05:59:03;22.90;99.90
15413;DHT22;7805;49.554;7.632;2022-08-05T06:01:31;23.00;99.90
15413;DHT22;7805;49.554;7.632;2022-08-05T06:03:56;23.20;99.90
15413;DHT22;7805;49.554;7.632;2022-08-05T06:06:22;23.30;99.90
15413;DHT22;7805;49.554;7.632;2022-08-05T06:08:47;23.20;99.90
15413;DHT22;7805;49.554;7.632;2022-08-05T06:11:13;23.00;99.90
15413;DHT22;7805;49.554;7.632;2022-08-05T06:13:39;22.80;99.90
15413;DHT22;7805;49.554;7.632;2022-08-05T06:16:04;22.90;99.90
15413;DHT22;7805;49.554;7.632;2022-08-05T06:18:30;23.00;99.90
15413;DHT22;7805;49.554;7.632;2022-08-05T06:20:55;23.10;99.90
15413;DHT22;7805;49.554;7.632;2022-08-05T06:23:21;23.20;99.90
15413;DHT22;7805;49.554;7.632;2022-08-05T06:25:47;23.20;99.90
15413;DHT22;7805;49.554;7.632;2022-08-05T06:28:13;23.30;99.90
15413;DHT22;7805;49.554;7.632;2022-08-05T06:30:38;23.50;99.90
15413;DHT22;7805;49.554;7.632;2022-08-05T06:33:04;23.60;99.90
15413;DHT22;7805;49.554;7.632;2022-08-05T06:35:30;23.50;99.90
15413;DHT22;7805;49.554;7.632;2022-08-05T06:37:55;23.50;99.90
15413;DHT22;7805;49.554;7.632;2022-08-05T06:40:21;23.50;99.90
15413;DHT22;7805;49.554;7.632;2022-08-05T06:42:50;23.50;99.90
15413;DHT22;7805;49.554;7.632;2022-08-05T06:45:16;23.40;99.90
15413;DHT22;7805;49.554;7.632;2022-08-05T06:47:41;23.40;99.90
15413;DHT22;7805;49.554;7.632;2022-08-05T06:50:07;23.30;99.90
15413;DHT22;7805;49.554;7.632;2022-08-05T06:52:33;23.30;99.90
15413;DHT22;7805;49.554;7.632;2022-08-05T06:54:59;23.40;99.90
15413;DHT22;7805;49.554;7.632;2022-08-05T06:57:25;23.50;99.90
15413;DHT22;7805;49.554;7.632;2022-08-05T06:59:50;23.60;99.90
15413;DHT22;7805;49.554;7.632;2022-08-05T07:02:16;23.70;99.90
15413;DHT22;7805;49.554;7.632;2022-08-05T07:04:42;23.70;99.90
15413;DHT22;7805;49.554;7.632;2022-08-05T07:07:07;23.70;99.90
15413;DHT22;7805;49.554;7.632;2022-08-05T07:09:33;23.80;99.90
15413;DHT22;7805;49.554;7.632;2022-08-05T07:11:58;23.80;99.90
15413;DHT22;7805;49.554;7.632;2022-08-05T07:14:24;23.80;99.90
15413;DHT22;7805;49.554;7.632;2022-08-05T07:17:08;23.80;99.90
15413;DHT22;7805;49.554;7.632;2022-08-05T07:19:34;23.90;99.90
15413;DHT22;7805;49.554;7.632;2022-08-05T07:22:00;23.80;99.90
15413;DHT22;7805;49.554;7.632;2022-08-05T07:24:25;23.80;99.90
15413;DHT22;7805;49.554;7.632;2022-08-05T07:26:51;23.70;99.90
15413;DHT22;7805;49.554;7.632;2022-08-05T07:29:18;23.60;99.90
15413;DHT22;7805;49.554;7.632;2022-08-05T07:31:43;23.60;99.90
15413;DHT22;7805;49.554;7.632;2022-08-05T07:34:09;23.60;99.90
15413;DHT22;7805;49.554;7.632;2022-08-05T07:36:34;23.70;99.90
15413;DHT22;7805;49.554;7.632;2022-08-05T07:39:02;23.60;99.90
15413;DHT22;7805;49.554;7.632;2022-08-05T07:41:28;23.70;99.90
15413;DHT22;7805;49.554;7.632;2022-08-05T07:43:55;23.90;99.90
15413;DHT22;7805;49.554;7.632;2022-08-05T07:46:22;23.80;99.90
15413;DHT22;7805;49.554;7.632;2022-08-05T07:48:48;23.80;99.90
15413;DHT22;7805;49.554;7.632;2022-08-05T07:51:13;23.90;99.90
15413;DHT22;7805;49.554;7.632;2022-08-05T07:53:41;24.00;99.90
15413;DHT22;7805;49.554;7.632;2022-08-05T07:56:06;24.10;99.90
15413;DHT22;7805;49.554;7.632;2022-08-05T07:58:32;24.30;99.90
15413;DHT22;7805;49.554;7.632;2022-08-05T08:00:57;24.40;99.90
15413;DHT22;7805;49.554;7.632;2022-08-05T08:03:23;24.60;99.90
15413;DHT22;7805;49.554;7.632;2022-08-05T08:05:49;24.70;99.90
15413;DHT22;7805;49.554;7.632;2022-08-05T08:08:17;24.70;99.90
15413;DHT22;7805;49.554;7.632;2022-08-05T08:10:43;24.80;99.90
15413;DHT22;7805;49.554;7.632;2022-08-05T08:13:09;24.80;99.90
15413;DHT22;7805;49.554;7.632;2022-08-05T08:15:35;24.90;99.90
15413;DHT22;7805;49.554;7.632;2022-08-05T08:18:01;25.00;99.90
15413;DHT22;7805;49.554;7.632;2022-08-05T08:20:27;25.20;99.90
15413;DHT22;7805;49.554;7.632;2022-08-05T08:22:54;25.30;99.90
15413;DHT22;7805;49.554;7.632;2022-08-05T08:25:20;25.00;99.90
15413;DHT22;7805;49.554;7.632;2022-08-05T08:27:46;25.00;99.90
15413;DHT22;7805;49.554;7.632;2022-08-05T08:30:13;24.90;99.90
15413;DHT22;7805;49.554;7.632;2022-08-05T08:32:38;25.00;99.90
15413;DHT22;7805;49.554;7.632;2022-08-05T08:35:05;25.10;99.90
15413;DHT22;7805;49.554;7.632;2022-08-05T08:37:31;25.30;99.90
15413;DHT22;7805;49.554;7.632;2022-08-05T08:39:57;25.70;99.90
15413;DHT22;7805;49.554;7.632;2022-08-05T08:42:24;25.90;99.90
15413;DHT22;7805;49.554;7.632;2022-08-05T08:44:54;26.20;99.90
15413;DHT22;7805;49.554;7.632;2022-08-05T08:47:23;26.30;99.90
15413;DHT22;7805;49.554;7.632;2022-08-05T08:49:52;26.20;99.90
15413;DHT22;7805;49.554;7.632;2022-08-05T08:52:38;26.20;99.90
15413;DHT22;7805;49.554;7.632;2022-08-05T08:55:07;24.50;99.90
15413;DHT22;7805;49.554;7.632;2022-08-05T08:57:33;26.60;99.90
15413;DHT22;7805;49.554;7.632;2022-08-05T08:59:59;26.60;99.90
15413;DHT22;7805;49.554;7.632;2022-08-05T09:02:26;26.50;99.90
15413;DHT22;7805;49.554;7.632;2022-08-05T09:04:52;26.70;99.90
15413;DHT22;7805;49.554;7.632;2022-08-05T09:07:18;26.60;99.90
15413;DHT22;7805;49.554;7.632;2022-08-05T09:09:43;26.70;99.90
15413;DHT22;7805;49.554;7.632;2022-08-05T09:12:09;26.80;99.90
15413;DHT22;7805;49.554;7.632;2022-08-05T09:14:35;26.90;99.90
15413;DHT22;7805;49.554;7.632;2022-08-05T09:17:04;27.00;99.90
15413;DHT22;7805;49.554;7.632;2022-08-05T09:19:30;27.30;99.80
15413;DHT22;7805;49.554;7.632;2022-08-05T09:21:55;27.30;99.90
15413;DHT22;7805;49.554;7.632;2022-08-05T09:24:21;27.40;99.60
15413;DHT22;7805;49.554;7.632;2022-08-05T09:26:50;27.50;99.00
15413;DHT22;7805;49.554;7.632;2022-08-05T09:29:16;27.60;99.10
15413;DHT22;7805;49.554;7.632;2022-08-05T09:31:42;27.70;99.00
15413;DHT22;7805;49.554;7.632;2022-08-05T09:34:09;27.70;98.70
15413;DHT22;7805;49.554;7.632;2022-08-05T09:39:12;27.40;98.50
15413;DHT22;7805;49.554;7.632;2022-08-05T09:42:07;27.30;98.60
15413;DHT22;7805;49.554;7.632;2022-08-05T09:44:37;26.80;98.00
15413;DHT22;7805;49.554;7.632;2022-08-05T09:47:12;26.70;98.40
15413;DHT22;7805;49.554;7.632;2022-08-05T09:49:42;26.40;98.60
15413;DHT22;7805;49.554;7.632;2022-08-05T09:57:37;25.90;99.60
15413;DHT22;7805;49.554;7.632;2022-08-05T10:00:11;25.80;99.90
15413;DHT22;7805;49.554;7.632;2022-08-05T10:02:41;25.60;99.90
15413;DHT22;7805;49.554;7.632;2022-08-05T10:05:09;25.60;99.90
15413;DHT22;7805;49.554;7.632;2022-08-05T10:07:55;25.70;99.90
15413;DHT22;7805;49.554;7.632;2022-08-05T10:10:26;25.40;99.90
15413;DHT22;7805;49.554;7.632;2022-08-05T10:12:55;25.50;99.90
15413;DHT22;7805;49.554;7.632;2022-08-05T10:15:30;25.40;99.90
15413;DHT22;7805;49.554;7.632;2022-08-05T10:20:40;25.30;99.90
15413;DHT22;7805;49.554;7.632;2022-08-05T10:23:09;25.30;99.90
15413;DHT22;7805;49.554;7.632;2022-08-05T10:25:35;25.40;99.90
15413;DHT22;7805;49.554;7.632;2022-08-05T10:28:01;25.40;99.90
15413;DHT22;7805;49.554;7.632;2022-08-05T10:30:27;25.40;99.90
15413;DHT22;7805;49.554;7.632;2022-08-05T10:32:55;25.40;99.90
15413;DHT22;7805;49.554;7.632;2022-08-05T10:35:21;25.50;99.90
15413;DHT22;7805;49.554;7.632;2022-08-05T10:37:47;25.50;99.90
15413;DHT22;7805;49.554;7.632;2022-08-05T10:43:23;25.60;99.90
15413;DHT22;7805;49.554;7.632;2022-08-05T10:45:57;25.90;99.90
15413;DHT22;7805;49.554;7.632;2022-08-05T10:48:35;26.20;99.90
15413;DHT22;7805;49.554;7.632;2022-08-05T10:51:15;26.20;99.90
15413;DHT22;7805;49.554;7.632;2022-08-05T10:53:52;26.20;99.90
15413;DHT22;7805;49.554;7.632;2022-08-05T10:56:27;26.30;99.90
15413;DHT22;7805;49.554;7.632;2022-08-05T11:01:37;26.40;99.90
15413;DHT22;7805;49.554;7.632;2022-08-05T11:06:32;26.40;99.90
15413;DHT22;7805;49.554;7.632;2022-08-05T11:09:17;26.80;99.90
15413;DHT22;7805;49.554;7.632;2022-08-05T11:11:48;27.00;99.70
15413;DHT22;7805;49.554;7.632;2022-08-05T11:14:23;27.00;99.60
15413;DHT22;7805;49.554;7.632;2022-08-05T11:19:50;27.40;99.10
15413;DHT22;7805;49.554;7.632;2022-08-05T11:25:33;27.20;98.90
15413;DHT22;7805;49.554;7.632;2022-08-05T11:33:33;27.00;99.00
15413;DHT22;7805;49.554;7.632;2022-08-05T11:41:17;27.70;98.80
15413;DHT22;7805;49.554;7.632;2022-08-05T11:44:00;28.10;98.50
15413;DHT22;7805;49.554;7.632;2022-08-05T11:49:02;28.50;97.80
15413;DHT22;7805;49.554;7.632;2022-08-05T11:51:28;28.30;97.60
15413;DHT22;7805;49.554;7.632;2022-08-05T11:53:55;28.20;97.90
15413;DHT22;7805;49.554;7.632;2022-08-05T11:56:21;28.30;97.80
15413;DHT22;7805;49.554;7.632;2022-08-05T11:58:48;28.40;97.50
15413;DHT22;7805;49.554;7.632;2022-08-05T12:01:16;28.30;97.20
15413;DHT22;7805;49.554;7.632;2022-08-05T12:03:49;28.20;97.20
15413;DHT22;7805;49.554;7.632;2022-08-05T12:06:25;28.20;97.30
15413;DHT22;7805;49.554;7.632;2022-08-05T12:08:58;28.30;97.30
15413;DHT22;7805;49.554;7.632;2022-08-05T12:11:24;28.30;97.00
15413;DHT22;7805;49.554;7.632;2022-08-05T12:16:32;28.00;96.80
15413;DHT22;7805;49.554;7.632;2022-08-05T12:18:58;27.90;97.20
15413;DHT22;7805;49.554;7.632;2022-08-05T12:21:27;27.90;97.10
15413;DHT22;7805;49.554;7.632;2022-08-05T12:26:39;27.70;97.10
15413;DHT22;7805;49.554;7.632;2022-08-05T12:29:07;26.30;96.80
15413;DHT22;7805;49.554;7.632;2022-08-05T12:31:34;27.50;97.30
15413;DHT22;7805;49.554;7.632;2022-08-05T12:34:01;27.60;97.30
15413;DHT22;7805;49.554;7.632;2022-08-05T12:36:27;27.70;97.10
15413;DHT22;7805;49.554;7.632;2022-08-05T12:38:53;27.70;97.10
15413;DHT22;7805;49.554;7.632;2022-08-05T12:41:21;27.70;97.00
15413;DHT22;7805;49.554;7.632;2022-08-05T12:43:52;27.70;97.10
15413;DHT22;7805;49.554;7.632;2022-08-05T12:46:38;27.70;97.10
15413;DHT22;7805;49.554;7.632;2022-08-05T12:51:50;28.10;96.80
15413;DHT22;7805;49.554;7.632;2022-08-05T12:54:28;28.30;96.60
15413;DHT22;7805;49.554;7.632;2022-08-05T12:56:56;28.40;96.50
15413;DHT22;7805;49.554;7.632;2022-08-05T12:59:26;28.70;96.10
15413;DHT22;7805;49.554;7.632;2022-08-05T13:04:25;29.30;95.40
15413;DHT22;7805;49.554;7.632;2022-08-05T13:06:51;29.40;95.00
15413;DHT22;7805;49.554;7.632;2022-08-05T13:09:17;29.00;93.50
15413;DHT22;7805;49.554;7.632;2022-08-05T13:11:43;28.70;94.30
15413;DHT22;7805;49.554;7.632;2022-08-05T13:14:17;28.80;94.20
15413;DHT22;7805;49.554;7.632;2022-08-05T13:19:12;28.80;93.60
15413;DHT22;7805;49.554;7.632;2022-08-05T13:21:39;28.80;93.70
15413;DHT22;7805;49.554;7.632;2022-08-05T13:24:05;29.00;94.00
15413;DHT22;7805;49.554;7.632;2022-08-05T13:26:31;29.20;94.00
15413;DHT22;7805;49.554;7.632;2022-08-05T13:28:57;29.20;93.90
15413;DHT22;7805;49.554;7.632;2022-08-05T13:31:23;29.20;94.00
15413;DHT22;7805;49.554;7.632;2022-08-05T13:33:48;29.20;93.90
15413;DHT22;7805;49.554;7.632;2022-08-05T13:36:14;29.30;93.90
15413;DHT22;7805;49.554;7.632;2022-08-05T13:38:39;29.40;94.00
15413;DHT22;7805;49.554;7.632;2022-08-05T13:41:05;29.30;93.90
15413;DHT22;7805;49.554;7.632;2022-08-05T13:43:31;29.10;94.40
15413;DHT22;7805;49.554;7.632;2022-08-05T13:45:57;29.10;94.70
15413;DHT22;7805;49.554;7.632;2022-08-05T13:48:22;28.90;94.50
15413;DHT22;7805;49.554;7.632;2022-08-05T13:50:48;28.50;94.90
15413;DHT22;7805;49.554;7.632;2022-08-05T13:53:14;28.60;95.30
15413;DHT22;7805;49.554;7.632;2022-08-05T13:55:39;28.60;95.20
15413;DHT22;7805;49.554;7.632;2022-08-05T13:58:05;28.60;95.00
15413;DHT22;7805;49.554;7.632;2022-08-05T14:00:30;28.40;95.20
15413;DHT22;7805;49.554;7.632;2022-08-05T14:02:56;28.20;95.70
15413;DHT22;7805;49.554;7.632;2022-08-05T14:05:22;28.10;96.00
15413;DHT22;7805;49.554;7.632;2022-08-05T14:07:47;28.10;96.30
15413;DHT22;7805;49.554;7.632;2022-08-05T14:10:18;28.20;96.70
15413;DHT22;7805;49.554;7.632;2022-08-05T14:12:47;28.20;96.90
15413;DHT22;7805;49.554;7.632;2022-08-05T14:15:13;28.20;96.80
15413;DHT22;7805;49.554;7.632;2022-08-05T14:17:38;28.00;97.00
15413;DHT22;7805;49.554;7.632;2022-08-05T14:20:05;28.00;97.30
15413;DHT22;7805;49.554;7.632;2022-08-05T14:22:32;28.00;97.30
15413;DHT22;7805;49.554;7.632;2022-08-05T14:24:58;27.80;97.50
15413;DHT22;7805;49.554;7.632;2022-08-05T14:27:23;27.80;97.60
15413;DHT22;7805;49.554;7.632;2022-08-05T14:29:49;27.90;97.70
15413;DHT22;7805;49.554;7.632;2022-08-05T14:32:14;28.20;97.60
15413;DHT22;7805;49.554;7.632;2022-08-05T14:34:40;28.60;97.20
15413;DHT22;7805;49.554;7.632;2022-08-05T14:37:06;28.70;96.80
15413;DHT22;7805;49.554;7.632;2022-08-05T14:39:32;28.50;96.80
15413;DHT22;7805;49.554;7.632;2022-08-05T14:41:57;28.20;97.00
15413;DHT22;7805;49.554;7.632;2022-08-05T14:44:23;27.30;97.80
15413;DHT22;7805;49.554;7.632;2022-08-05T14:46:49;26.40;98.90
15413;DHT22;7805;49.554;7.632;2022-08-05T14:49:14;26.00;99.70
15413;DHT22;7805;49.554;7.632;2022-08-05T14:51:40;26.00;99.90
15413;DHT22;7805;49.554;7.632;2022-08-05T14:54:06;25.90;99.90
15413;DHT22;7805;49.554;7.632;2022-08-05T14:56:33;25.50;99.90
15413;DHT22;7805;49.554;7.632;2022-08-05T14:58:58;25.50;99.90
15413;DHT22;7805;49.554;7.632;2022-08-05T15:01:24;25.50;99.90
15413;DHT22;7805;49.554;7.632;2022-08-05T15:03:50;25.40;99.90
15413;DHT22;7805;49.554;7.632;2022-08-05T15:06:16;25.30;99.90
15413;DHT22;7805;49.554;7.632;2022-08-05T15:08:42;25.30;99.90
15413;DHT22;7805;49.554;7.632;2022-08-05T15:11:08;25.30;99.90
15413;DHT22;7805;49.554;7.632;2022-08-05T15:13:34;25.10;99.90
15413;DHT22;7805;49.554;7.632;2022-08-05T15:16:00;24.90;99.90
15413;DHT22;7805;49.554;7.632;2022-08-05T15:18:26;24.90;99.90
15413;DHT22;7805;49.554;7.632;2022-08-05T15:20:52;24.80;99.90
15413;DHT22;7805;49.554;7.632;2022-08-05T15:23:17;24.90;99.90
15413;DHT22;7805;49.554;7.632;2022-08-05T15:25:43;25.00;99.90
15413;DHT22;7805;49.554;7.632;2022-08-05T15:28:08;25.00;99.90
15413;DHT22;7805;49.554;7.632;2022-08-05T15:30:34;24.70;99.90
15413;DHT22;7805;49.554;7.632;2022-08-05T15:33:04;24.60;99.90
15413;DHT22;7805;49.554;7.632;2022-08-05T15:35:29;24.60;99.90
15413;DHT22;7805;49.554;7.632;2022-08-05T15:37:55;24.70;99.90
15413;DHT22;7805;49.554;7.632;2022-08-05T15:40:21;24.50;99.90
15413;DHT22;7805;49.554;7.632;2022-08-05T15:42:47;24.30;99.90
15413;DHT22;7805;49.554;7.632;2022-08-05T15:45:13;24.40;99.90
15413;DHT22;7805;49.554;7.632;2022-08-05T15:47:42;24.30;99.90
15413;DHT22;7805;49.554;7.632;2022-08-05T15:50:09;24.20;99.90
15413;DHT22;7805;49.554;7.632;2022-08-05T15:52:35;24.30;99.90
15413;DHT22;7805;49.554;7.632;2022-08-05T15:55:03;24.40;99.80
15413;DHT22;7805;49.554;7.632;2022-08-05T15:57:29;24.30;99.70
15413;DHT22;7805;49.554;7.632;2022-08-05T15:59:54;24.40;99.40
15413;DHT22;7805;49.554;7.632;2022-08-05T16:02:20;24.30;99.30
15413;DHT22;7805;49.554;7.632;2022-08-05T16:04:47;24.40;99.40
15413;DHT22;7805;49.554;7.632;2022-08-05T16:07:12;24.50;99.00
15413;DHT22;7805;49.554;7.632;2022-08-05T16:09:38;24.50;98.80
15413;DHT22;7805;49.554;7.632;2022-08-05T16:12:05;24.50;98.80
15413;DHT22;7805;49.554;7.632;2022-08-05T16:14:31;24.60;98.70
15413;DHT22;7805;49.554;7.632;2022-08-05T16:16:56;24.60;98.50
15413;DHT22;7805;49.554;7.632;2022-08-05T16:19:22;24.70;98.30
15413;DHT22;7805;49.554;7.632;2022-08-05T16:21:48;24.60;98.30
15413;DHT22;7805;49.554;7.632;2022-08-05T16:24:14;24.60;98.30
15413;DHT22;7805;49.554;7.632;2022-08-05T16:29:14;24.70;98.20
15413;DHT22;7805;49.554;7.632;2022-08-05T16:31:40;24.60;98.30
15413;DHT22;7805;49.554;7.632;2022-08-05T16:34:06;24.80;98.30
15413;DHT22;7805;49.554;7.632;2022-08-05T16:36:31;24.80;98.00
15413;DHT22;7805;49.554;7.632;2022-08-05T16:38:57;24.90;97.90
15413;DHT22;7805;49.554;7.632;2022-08-05T16:41:23;24.70;97.90
15413;DHT22;7805;49.554;7.632;2022-08-05T16:43:48;24.70;97.90
15413;DHT22;7805;49.554;7.632;2022-08-05T16:46:14;24.50;98.00
15413;DHT22;7805;49.554;7.632;2022-08-05T16:48:39;24.50;98.10
15413;DHT22;7805;49.554;7.632;2022-08-05T16:51:06;24.50;98.10
15413;DHT22;7805;49.554;7.632;2022-08-05T16:53:31;24.50;98.10